Glenwood Springs, CO (81602)

3:43 AM MDT en Abril 26, 2015 (GMT -0600)
MVDS GREENHOUSE | | Change Station
CLOSE
Current Station
Estación meteorológica personal
Location: Glenwood Springs, CO
Altura: 5922 ft
Estaciones meteorológicas cercanas

Alt 5922 ft 39.51 °N, 107.32 °W | Updated 15 seconds ago

Nublado
Nublado
39.4 ° F
Sensación térmica 39 ° F
N
2.0
Viento Variable Viento desde SSE
Gusts 4.9 mph

Hoy
Alta -- | Baja -- ° F
--% Posibilidad de precipitaciones
Ayer
Alta -- | Baja -- ° F
Precip. -- pul
6:16 AM 7:57 PM
Cuarto creciente, 54% visible
Presión 29.73 pul
Visibilidad 2.5 Millas
Nubes Baja 100 ft
Vientos helados 39 ° F
Punto de rocío 39 ° F
Humedad 98%
Precipitaciones 0.00 pul
Espesor de la nieve No disponible.
UV 0.0 de una escala de 12
Polen 7.80 de una escala de 12
Calidad del aire No disponible.
Flu Activity Sporadic
SPECI KRIL 260935Z AUTO 36003KT 2 1/2SM BR FEW001 05/04 A2973 RMK AO2 T00500039

More Conditions Fewer Conditions

Presión 29.73 pul
Visibilidad 2.5 Millas
Nubes Baja 100 ft
Vientos helados 39 ° F
Punto de rocío 39 ° F
Humedad 98%
Precipitaciones 0.00 pul
Espesor de la nieve No disponible.
UV 0.0 de una escala de 12
Polen 7.80 de una escala de 12
Calidad del aire No disponible.
Flu Activity Sporadic
SPECI KRIL 260935Z AUTO 36003KT 2 1/2SM BR FEW001 05/04 A2973 RMK AO2 T00500039

More Conditions Fewer Conditions

The full scope of the disaster following a powerful 7.8-magnitude earthquake in Nepal may not come into view for days, but global charities are already sending emergency aid. Click to see how you can help.

10-Day Weather Forecast

Almanac

Astronomía

Apr. 26, 2015 Salida Puesta
Hora real
Crepúsculo civil
Crepúsculo náutico
Crepúsculo astronómico
Luna
Horas de luz
Horas de luz
Tomorrow will be .
, % of the Moon is Illuminated

Extremos de hoy

Máximos del estado Bajos del estado

Community

WunderPhotos

Upload Photos

1,816,952 ¡fotos cargadas!

WunderBlogs® & News

Nearby

Calidad del aire

  Calidad del aire Índice AQ Contaminante
Not available.

Grosos de nieve

Estación Profundido Altura

Actividad de terremotos

Ciudad Distance Mag. Tiempo y dato
Magnitud mínima muestra es 2,5.

Temperaturas de aguas costeras

Lugar Temperatura

Stations

Estaciones meteorológicas cercanas

Ubicación de la estación Temp. Vientos helados Punto de rocío Humedad Viento Precip. Alt Actualizado Tipo